WLE weather

Miles Airport
Queensland, Australia

Public forecast

Using degrees Celsius for public forecast. Weather courtesy of forecast.io.

Closest aviation weather report (METAR) to Miles Airport

Closest report is Kingaroy Airport, 90.4 nm (167.4 km) E. Retrieved 2019/10/24 03:00 UTC (51 seconds ago):

YKRY 240300Z AUTO 09007KT 070V150 9999 // SCT076 27/08 Q1020

Closest aviation forecast (TAF) to Miles Airport

Closest forecast is RAAF Base Amberley, 144.4 nm (267.4 km) ESE. Retrieved 2019-10-24 00:00 UTC (3 hours ago):

TAF YAMB 232259Z 2400/2418 05008KT 9999 FEW045 FM240500 06015KT CAVOK FM240900 07005KT CAVOK FM241500 VRB03KT 9999 MIFG NSC